Skip Navigation LinksHome page > Weather > Current weather Skip Navigation Links

Current Weather

Jakutsk, Russia

For information only: do not use for flight planning or navigation.
Latest weather
Observation time Saturday, October 1, 2016 3:30 PM JST
Local time Saturday, October 1, 2016 4:04 PM JST
Flight conditions Visual Meteorological Conditions
Winds
Wind direction Northwest (320°)
Wind speed 9 mph
Visibility 6.2 mi.
Sky condition
Ceiling unlimited
Sky clear
Temperature 37°F
Dewpoint 16°F
Altimeter 29.88 in.Hg
Precipitation
QF 3:31 AM
Derived measurements
Relative humidity 41%
Wind chill 31°F
Density altitude -1023 ft.
Remarks
Ceiling and visibility OK.
No significant changes expected in the next two hours.
METAR UEEE 010630Z 32004MPS CAVOK 03/M09 Q1012 R23L/09//60 NOSIG RMK QFE751

Settings

Location code

InnerDrive.Weather 4.0.5722.1 Release CLR 4.0.30319.34209
Copyright ©2015 Inner Drive Technology. All rights reserved. Portions Copyright ©1986-2015 David Braverman.

Find weather

Site navigation


Skip Navigation Links

Place info

Page info

PayPal - The safer, easier way to pay online!

Return home.

Copyright ©2016 Inner Drive Technology. Purveyors of fine, hand-crafted computer software. Page printed 2016-10-01T07:04:41 UTC.